createdAt,value
2023-03-21T00:01:54.006Z,23.70
2023-03-21T00:04:26.021Z,22.90
2023-03-21T00:06:53.895Z,21.80
2023-03-21T00:09:21.838Z,24.40
2023-03-21T00:11:48.790Z,22.60
2023-03-21T00:14:20.224Z,25.10
2023-03-21T00:16:51.790Z,21.40
2023-03-21T00:19:21.112Z,21.60
2023-03-21T00:22:06.045Z,27.30
2023-03-21T00:24:35.734Z,23.70
2023-03-21T00:27:26.324Z,22.30
2023-03-21T00:29:50.583Z,23.50
2023-03-21T00:32:18.091Z,20.80
2023-03-21T00:34:59.705Z,21.30
2023-03-21T00:37:32.076Z,21.80
2023-03-21T00:39:59.184Z,21.50
2023-03-21T00:42:26.630Z,21.00
2023-03-21T00:44:53.823Z,22.00
2023-03-21T00:47:20.989Z,21.00
2023-03-21T00:49:48.072Z,21.90
2023-03-21T00:52:20.325Z,19.90
2023-03-21T00:54:54.588Z,22.10
2023-03-21T00:57:29.321Z,21.30
2023-03-21T01:00:04.532Z,21.00
2023-03-21T01:02:31.773Z,22.40
2023-03-21T01:04:59.126Z,22.70
2023-03-21T01:07:26.093Z,22.60
2023-03-21T01:09:56.161Z,21.20
2023-03-21T01:12:23.260Z,21.90
2023-03-21T01:14:50.245Z,21.20
2023-03-21T01:17:17.218Z,21.90
2023-03-21T01:19:51.636Z,21.00
2023-03-21T01:37:37.871Z,22.40
2023-03-21T01:40:06.903Z,20.60
2023-03-21T02:21:33.828Z,24.10
2023-03-21T02:32:36.590Z,21.70
2023-03-21T02:35:16.511Z,19.30
2023-03-21T02:37:58.559Z,20.40
2023-03-21T02:41:01.739Z,20.20
2023-03-21T02:43:39.076Z,21.00
2023-03-21T02:46:09.834Z,23.50
2023-03-21T02:48:50.817Z,21.20
2023-03-21T02:51:23.622Z,22.20
2023-03-21T02:54:21.407Z,20.60
2023-03-21T02:56:44.475Z,22.00
2023-03-21T02:59:11.781Z,22.10
2023-03-21T03:01:38.555Z,22.90
2023-03-21T03:04:17.312Z,20.80
2023-03-21T03:07:05.943Z,21.10
2023-03-21T03:10:15.950Z,24.20
2023-03-21T03:13:10.416Z,24.80
2023-03-21T03:15:45.899Z,22.30
2023-03-21T03:18:41.816Z,21.80
2023-03-21T03:21:25.248Z,21.00
2023-03-21T03:24:03.688Z,22.60
2023-03-21T03:26:30.398Z,21.90
2023-03-21T03:29:02.656Z,22.30
2023-03-21T03:31:35.089Z,20.90
2023-03-21T03:34:09.410Z,21.80
2023-03-21T03:36:41.937Z,20.40
2023-03-21T03:39:11.797Z,21.40
2023-03-21T03:44:30.378Z,23.60
2023-03-21T03:47:17.542Z,27.20
2023-03-21T03:50:09.766Z,29.70
2023-03-21T03:53:16.166Z,28.90
2023-03-21T03:55:46.344Z,30.30
2023-03-21T03:58:22.168Z,34.00
2023-03-21T04:00:52.193Z,31.70
2023-03-21T04:03:19.070Z,30.90
2023-03-21T04:05:48.860Z,34.20
2023-03-21T04:10:44.012Z,34.20
2023-03-21T04:13:11.225Z,33.40
2023-03-21T04:15:38.225Z,31.20
2023-03-21T04:18:05.065Z,31.60
2023-03-21T04:20:36.995Z,29.70
2023-03-21T04:23:05.655Z,29.10
2023-03-21T04:25:40.290Z,31.60
2023-03-21T04:28:07.253Z,31.20
2023-03-21T04:30:34.345Z,30.00
2023-03-21T04:33:01.326Z,28.10
2023-03-21T04:35:28.898Z,28.70
2023-03-21T04:37:56.702Z,29.30
2023-03-21T04:40:25.251Z,26.80
2023-03-21T04:42:52.220Z,30.70
2023-03-21T04:45:19.105Z,28.90
2023-03-21T04:47:45.925Z,31.00
2023-03-21T04:50:13.899Z,30.90
2023-03-21T04:52:40.714Z,30.30
2023-03-21T04:55:10.373Z,30.10
2023-03-21T05:00:10.946Z,26.30
2023-03-21T05:02:38.820Z,28.00
2023-03-21T05:05:06.898Z,28.50
2023-03-21T05:07:33.712Z,27.70
2023-03-21T05:10:02.458Z,29.20
2023-03-21T05:12:29.505Z,28.80
2023-03-21T05:14:56.336Z,28.10
2023-03-21T05:17:28.537Z,26.20
2023-03-21T05:19:59.708Z,26.30
2023-03-21T05:22:28.316Z,24.30
2023-03-21T05:24:55.488Z,23.40
2023-03-21T05:27:36.262Z,25.40
2023-03-21T05:30:21.411Z,24.80
2023-03-21T05:32:48.117Z,24.50
2023-03-21T05:35:14.868Z,21.60
2023-03-21T05:37:41.733Z,22.80
2023-03-21T05:40:09.819Z,20.90
2023-03-21T05:42:36.611Z,19.80
2023-03-21T05:45:03.728Z,20.10
2023-03-21T05:47:30.695Z,17.30
2023-03-21T05:49:57.407Z,17.10
2023-03-21T05:52:24.376Z,16.30
2023-03-21T05:54:51.232Z,16.10
2023-03-21T05:57:19.295Z,14.10
2023-03-21T05:59:46.063Z,13.70
2023-03-21T06:02:13.326Z,11.20
2023-03-21T06:04:40.813Z,11.50
2023-03-21T06:07:07.569Z,11.30
2023-03-21T06:09:34.545Z,11.90
2023-03-21T06:12:01.393Z,10.90
2023-03-21T06:14:28.253Z,10.80
2023-03-21T06:16:55.080Z,7.50
2023-03-21T06:19:23.272Z,9.60
2023-03-21T06:21:50.144Z,8.80
2023-03-21T06:24:18.002Z,12.00
2023-03-21T06:26:45.825Z,9.00
2023-03-21T06:29:13.158Z,8.40
2023-03-21T06:31:40.070Z,9.50
2023-03-21T06:34:06.910Z,8.50
2023-03-21T06:36:33.871Z,9.10
2023-03-21T06:39:00.704Z,6.90
2023-03-21T06:41:27.845Z,6.80
2023-03-21T06:43:54.645Z,8.40
2023-03-21T06:46:21.429Z,7.60
2023-03-21T06:48:48.394Z,7.40
2023-03-21T06:51:16.382Z,7.00
2023-03-21T06:53:43.392Z,6.80
2023-03-21T06:56:11.490Z,6.00
2023-03-21T06:58:39.034Z,4.70
2023-03-21T07:01:07.091Z,4.20
2023-03-21T07:03:34.384Z,5.90
2023-03-21T07:06:07.286Z,4.70
2023-03-21T07:08:34.229Z,3.90
2023-03-21T07:11:01.043Z,4.70
2023-03-21T07:13:27.853Z,3.20
2023-03-21T07:15:55.144Z,3.70
2023-03-21T07:18:21.964Z,3.80
2023-03-21T07:20:52.915Z,3.10
2023-03-21T07:23:22.878Z,5.20
2023-03-21T07:25:50.790Z,3.90
2023-03-21T07:28:18.687Z,4.90
2023-03-21T07:30:52.008Z,7.80
2023-03-21T07:33:18.964Z,3.50
2023-03-21T07:35:45.998Z,5.30
2023-03-21T07:38:14.783Z,5.10
2023-03-21T07:40:41.848Z,4.80
2023-03-21T07:43:08.761Z,5.80
2023-03-21T07:45:36.160Z,5.30
2023-03-21T07:48:03.484Z,5.10
2023-03-21T07:50:30.601Z,5.20
2023-03-21T07:52:57.632Z,7.00
2023-03-21T07:55:24.589Z,6.50
2023-03-21T07:57:52.121Z,6.70
2023-03-21T08:00:23.349Z,5.00
2023-03-21T08:02:58.706Z,5.50
2023-03-21T08:05:31.347Z,6.20
2023-03-21T08:07:58.338Z,6.80
2023-03-21T08:10:25.705Z,6.40
2023-03-21T08:12:53.002Z,6.90
2023-03-21T08:15:20.251Z,6.40
2023-03-21T08:17:47.642Z,5.70
2023-03-21T08:20:17.548Z,6.30
2023-03-21T08:22:44.676Z,5.20
2023-03-21T08:25:18.169Z,4.70
2023-03-21T08:27:46.945Z,6.70
2023-03-21T08:30:16.780Z,7.10
2023-03-21T08:32:44.446Z,7.90
2023-03-21T08:35:16.031Z,6.50
2023-03-21T08:37:43.961Z,6.20
2023-03-21T08:40:15.984Z,5.60
2023-03-21T08:42:44.012Z,7.10
2023-03-21T08:45:12.318Z,5.80
2023-03-21T08:47:40.079Z,7.40
2023-03-21T08:50:08.905Z,6.20
2023-03-21T08:52:36.090Z,9.50
2023-03-21T08:55:04.299Z,7.70
2023-03-21T08:57:31.286Z,8.20
2023-03-21T08:59:58.232Z,7.80
2023-03-21T09:02:25.374Z,8.00
2023-03-21T09:04:55.147Z,8.20
2023-03-21T09:07:22.469Z,9.00
2023-03-21T09:10:08.212Z,10.50
2023-03-21T09:12:39.467Z,14.00
2023-03-21T09:15:08.553Z,14.00
2023-03-21T09:17:36.629Z,16.30
2023-03-21T09:20:11.566Z,15.80
2023-03-21T09:22:41.870Z,13.40
2023-03-21T09:25:11.603Z,17.10
2023-03-21T09:27:38.999Z,15.30
2023-03-21T09:30:07.769Z,16.50
2023-03-21T09:32:35.475Z,14.80
2023-03-21T09:35:03.006Z,16.20
2023-03-21T09:37:30.259Z,14.70
2023-03-21T09:39:58.556Z,15.30
2023-03-21T09:42:42.721Z,16.10
2023-03-21T09:45:18.855Z,15.30
2023-03-21T09:47:54.897Z,15.50
2023-03-21T09:50:41.304Z,13.90
2023-03-21T09:53:18.244Z,15.60
2023-03-21T09:55:46.403Z,16.10
2023-03-21T09:58:31.673Z,18.70
2023-03-21T10:01:10.522Z,15.00
2023-03-21T10:03:38.524Z,16.80
2023-03-21T10:06:13.205Z,16.10
2023-03-21T10:08:42.415Z,18.80
2023-03-21T10:11:14.370Z,21.00
2023-03-21T10:14:10.510Z,20.40
2023-03-21T10:17:14.459Z,18.20
2023-03-21T10:19:46.463Z,19.40
2023-03-21T10:22:13.321Z,20.90
2023-03-21T10:24:40.034Z,18.10
2023-03-21T10:27:07.357Z,20.30
2023-03-21T10:29:47.925Z,20.30
2023-03-21T10:32:18.336Z,21.80
2023-03-21T10:37:24.764Z,18.00
2023-03-21T10:39:53.829Z,19.80
2023-03-21T10:42:28.561Z,20.00
2023-03-21T10:44:57.696Z,19.10
2023-03-21T10:47:32.918Z,20.40
2023-03-21T10:50:08.494Z,29.40
2023-03-21T10:52:38.772Z,32.00
2023-03-21T10:57:44.061Z,21.00
2023-03-21T11:00:21.500Z,16.90
2023-03-21T11:02:51.316Z,18.50
2023-03-21T11:05:22.585Z,18.50
2023-03-21T11:07:59.120Z,23.00
2023-03-21T11:10:36.180Z,20.60
2023-03-21T11:13:08.282Z,18.00
2023-03-21T11:15:38.261Z,20.60
2023-03-21T11:18:20.783Z,20.20
2023-03-21T11:20:59.245Z,18.50
2023-03-21T11:23:30.029Z,20.40
2023-03-21T11:25:59.338Z,20.50
2023-03-21T11:28:33.777Z,18.40
2023-03-21T11:31:03.214Z,18.50
2023-03-21T11:33:37.391Z,19.00
2023-03-21T11:36:20.993Z,17.60
2023-03-21T11:38:59.274Z,20.30
2023-03-21T11:41:31.127Z,18.40
2023-03-21T11:43:58.975Z,19.00
2023-03-21T11:46:31.633Z,18.40
2023-03-21T11:48:59.890Z,19.30
2023-03-21T11:51:48.277Z,22.00
2023-03-21T11:54:35.883Z,18.30
2023-03-21T11:57:18.983Z,19.80
2023-03-21T11:59:50.612Z,19.20
2023-03-21T12:02:35.328Z,18.50
2023-03-21T12:05:13.253Z,18.30
2023-03-21T12:07:57.630Z,17.50
2023-03-21T12:10:43.323Z,19.90
2023-03-21T12:13:26.830Z,20.40
2023-03-21T12:16:02.598Z,23.30
2023-03-21T12:18:35.550Z,20.90
2023-03-21T12:21:09.068Z,23.50
2023-03-21T12:23:44.139Z,23.70
2023-03-21T12:26:24.008Z,24.80
2023-03-21T12:28:56.819Z,21.50
2023-03-21T12:31:43.485Z,24.10
2023-03-21T12:34:36.677Z,25.30
2023-03-21T12:37:17.647Z,25.50
2023-03-21T12:39:47.986Z,26.00
2023-03-21T12:42:42.507Z,24.90
2023-03-21T12:45:19.884Z,29.10
2023-03-21T12:47:56.373Z,24.00
2023-03-21T12:50:30.276Z,26.60
2023-03-21T12:53:08.090Z,27.90
2023-03-21T12:55:35.500Z,26.20
2023-03-21T12:58:11.642Z,27.80
2023-03-21T13:00:43.856Z,24.80
2023-03-21T13:03:30.275Z,24.40
2023-03-21T13:06:06.034Z,26.60
2023-03-21T13:08:50.554Z,28.90
2023-03-21T13:11:24.605Z,25.20
2023-03-21T13:14:00.483Z,25.10
2023-03-21T13:16:30.361Z,27.20
2023-03-21T13:19:03.124Z,26.90
2023-03-21T13:21:43.954Z,25.60
2023-03-21T13:24:19.729Z,24.70
2023-03-21T13:26:50.162Z,25.20
2023-03-21T13:29:31.234Z,27.90
2023-03-21T13:32:09.296Z,24.60
2023-03-21T13:34:39.191Z,24.90
2023-03-21T13:37:05.993Z,25.60
2023-03-21T13:39:33.036Z,24.70
2023-03-21T13:42:06.162Z,27.00
2023-03-21T13:44:41.956Z,26.60
2023-03-21T13:47:36.955Z,26.80
2023-03-21T13:50:17.709Z,25.60
2023-03-21T13:53:04.273Z,27.30
2023-03-21T13:55:38.376Z,24.10
2023-03-21T13:58:24.834Z,25.90
2023-03-21T14:01:22.038Z,30.40
2023-03-21T14:03:49.927Z,24.20
2023-03-21T14:06:18.434Z,25.10
2023-03-21T14:08:47.767Z,25.90
2023-03-21T14:11:19.468Z,26.30
2023-03-21T14:13:51.294Z,23.70
2023-03-21T14:16:21.073Z,27.60
2023-03-21T14:18:55.765Z,25.50
2023-03-21T14:21:26.028Z,25.80
2023-03-21T14:23:58.103Z,29.20
2023-03-21T14:26:27.913Z,28.10
2023-03-21T14:28:55.222Z,27.40
2023-03-21T14:31:22.288Z,30.20
2023-03-21T14:33:54.433Z,28.50
2023-03-21T14:36:26.635Z,29.10
2023-03-21T14:39:12.143Z,29.70
2023-03-21T14:41:49.607Z,27.90
2023-03-21T14:44:54.040Z,27.30
2023-03-21T14:47:25.105Z,30.20
2023-03-21T14:49:53.094Z,30.10
2023-03-21T14:52:41.448Z,32.60
2023-03-21T14:55:15.787Z,30.10
2023-03-21T14:57:43.390Z,33.20
2023-03-21T15:00:26.439Z,31.80
2023-03-21T15:02:55.653Z,32.90
2023-03-21T15:05:37.963Z,32.00
2023-03-21T15:08:16.383Z,39.40
2023-03-21T15:11:07.722Z,43.00
2023-03-21T15:13:52.794Z,39.80
2023-03-21T15:16:22.422Z,35.30
2023-03-21T15:21:35.314Z,39.50
2023-03-21T15:24:16.691Z,37.30
2023-03-21T15:26:48.314Z,41.20
2023-03-21T15:29:17.081Z,41.30
2023-03-21T15:31:46.945Z,38.30
2023-03-21T15:34:27.964Z,39.70
2023-03-21T15:36:58.542Z,39.50
2023-03-21T15:39:29.819Z,38.00
2023-03-21T15:42:00.634Z,35.50
2023-03-21T15:44:29.054Z,43.50
2023-03-21T15:46:57.421Z,46.30
2023-03-21T15:49:32.538Z,43.50
2023-03-21T15:52:13.162Z,43.50
2023-03-21T15:54:56.086Z,41.90
2023-03-21T15:57:33.045Z,40.10
2023-03-21T16:00:20.240Z,37.80
2023-03-21T16:02:49.650Z,37.20
2023-03-21T16:05:32.271Z,38.50
2023-03-21T16:08:24.660Z,36.50
2023-03-21T16:10:51.496Z,36.60
2023-03-21T16:13:18.483Z,36.90
2023-03-21T16:15:46.957Z,36.90
2023-03-21T16:18:17.110Z,37.60
2023-03-21T16:20:46.196Z,38.20
2023-03-21T16:23:14.593Z,39.20
2023-03-21T16:25:45.906Z,36.00
2023-03-21T16:28:16.589Z,38.50
2023-03-21T16:30:43.748Z,39.20
2023-03-21T16:33:13.809Z,38.60
2023-03-21T16:35:41.249Z,35.30
2023-03-21T16:38:09.570Z,39.10
2023-03-21T16:40:39.910Z,37.30
2023-03-21T16:43:07.706Z,39.50
2023-03-21T16:45:34.701Z,37.60
2023-03-21T16:48:01.812Z,39.90
2023-03-21T16:50:32.466Z,38.00
2023-03-21T16:53:00.412Z,36.90
2023-03-21T16:55:28.002Z,34.20
2023-03-21T16:57:57.715Z,36.50
2023-03-21T17:02:55.255Z,42.20
2023-03-21T17:05:25.789Z,40.00
2023-03-21T17:07:53.585Z,33.90
2023-03-21T17:10:27.641Z,38.50
2023-03-21T17:12:54.532Z,37.60
2023-03-21T17:15:22.301Z,39.70
2023-03-21T17:17:50.396Z,40.40
2023-03-21T17:20:23.546Z,40.40
2023-03-21T17:22:50.775Z,39.70
2023-03-21T17:25:18.582Z,38.90
2023-03-21T17:27:46.086Z,38.40
2023-03-21T17:30:26.885Z,36.20
2023-03-21T17:32:54.834Z,36.00
2023-03-21T17:35:23.283Z,34.30
2023-03-21T17:37:51.174Z,40.10
2023-03-21T17:40:30.305Z,41.70
2023-03-21T17:42:58.175Z,41.30
2023-03-21T17:45:25.672Z,41.80
2023-03-21T17:47:55.092Z,40.30
2023-03-21T17:50:27.497Z,42.30
2023-03-21T17:52:57.496Z,44.70
2023-03-21T17:55:24.660Z,40.80
2023-03-21T17:57:51.435Z,41.70
2023-03-21T18:00:23.067Z,38.90
2023-03-21T18:02:50.506Z,40.90
2023-03-21T18:05:17.902Z,39.40
2023-03-21T18:08:08.885Z,40.20
2023-03-21T18:10:32.276Z,39.50
2023-03-21T18:13:00.285Z,41.40
2023-03-21T18:15:30.224Z,43.40
2023-03-21T18:17:57.900Z,40.40
2023-03-21T18:20:50.440Z,40.30
2023-03-21T18:23:18.827Z,38.70
2023-03-21T18:28:13.093Z,37.50
2023-03-21T18:31:05.431Z,40.80
2023-03-21T18:33:27.671Z,38.50
2023-03-21T18:35:59.411Z,37.30
2023-03-21T18:38:28.359Z,35.60
2023-03-21T18:40:56.760Z,37.70
2023-03-21T18:46:11.826Z,44.00
2023-03-21T18:48:39.326Z,46.60
2023-03-21T18:51:06.508Z,40.90
2023-03-21T18:53:33.518Z,46.40
2023-03-21T18:56:00.881Z,49.00
2023-03-21T18:58:29.465Z,45.20
2023-03-21T19:00:59.650Z,49.60
2023-03-21T19:03:35.844Z,52.70
2023-03-21T19:06:05.561Z,49.30
2023-03-21T19:08:34.960Z,48.40
2023-03-21T19:11:06.089Z,40.00
2023-03-21T19:13:34.204Z,39.50
2023-03-21T19:16:02.603Z,42.30
2023-03-21T19:21:19.227Z,44.10
2023-03-21T19:24:22.895Z,39.90
2023-03-21T19:26:34.827Z,38.10
2023-03-21T19:29:01.917Z,36.70
2023-03-21T19:31:28.709Z,39.00
2023-03-21T19:33:55.809Z,42.40
2023-03-21T19:36:23.744Z,42.90
2023-03-21T19:38:55.766Z,46.40
2023-03-21T19:42:32.551Z,49.70
2023-03-21T19:46:19.443Z,47.20
2023-03-21T19:56:22.500Z,39.60
2023-03-21T19:58:51.914Z,39.10
2023-03-21T20:01:18.689Z,44.30
2023-03-21T20:03:46.064Z,43.10
2023-03-21T20:06:13.432Z,44.40
2023-03-21T20:09:17.192Z,46.20
2023-03-21T20:11:27.787Z,46.40
2023-03-21T20:13:54.570Z,43.10
2023-03-21T20:16:21.472Z,43.80
2023-03-21T20:18:48.322Z,42.70
2023-03-21T20:21:17.834Z,45.80
2023-03-21T20:23:49.410Z,44.30
2023-03-21T20:26:16.862Z,41.80
2023-03-21T20:28:56.120Z,36.40
2023-03-21T20:31:30.263Z,38.80
2023-03-21T20:33:57.293Z,44.20
2023-03-21T20:36:38.688Z,49.10
2023-03-21T20:39:06.982Z,49.10
2023-03-21T20:41:33.717Z,45.50
2023-03-21T20:46:50.031Z,41.00
2023-03-21T20:49:16.943Z,44.90
2023-03-21T20:54:31.203Z,51.40
2023-03-21T20:56:57.960Z,48.40
2023-03-21T20:59:27.730Z,50.60
2023-03-21T21:01:57.497Z,47.00
2023-03-21T21:07:21.328Z,43.30
2023-03-21T21:09:49.354Z,49.40
2023-03-21T21:12:19.528Z,45.10
2023-03-21T21:14:47.928Z,48.10
2023-03-21T21:20:15.216Z,51.70
2023-03-21T21:22:46.080Z,51.10
2023-03-21T21:25:24.074Z,53.90
2023-03-21T21:27:50.883Z,49.50
2023-03-21T21:30:18.662Z,48.10
2023-03-21T21:32:45.604Z,46.00
2023-03-21T21:35:12.505Z,46.50
2023-03-21T21:37:42.085Z,53.70
2023-03-21T21:40:20.420Z,48.60
2023-03-21T21:42:47.323Z,44.40
2023-03-21T21:45:15.715Z,44.70
2023-03-21T21:47:45.044Z,43.80
2023-03-21T21:50:12.684Z,48.80
2023-03-21T21:52:39.473Z,51.50
2023-03-21T21:55:06.714Z,48.40
2023-03-21T21:57:34.801Z,56.80
2023-03-21T22:00:07.030Z,51.60
2023-03-21T22:02:34.662Z,49.90
2023-03-21T22:05:01.427Z,49.50
2023-03-21T22:07:29.093Z,48.60
2023-03-21T22:09:56.268Z,49.60
2023-03-21T22:12:23.025Z,54.70
2023-03-21T22:14:49.798Z,53.80
2023-03-21T22:17:17.186Z,50.90
2023-03-21T22:19:52.709Z,50.10
2023-03-21T22:22:26.460Z,51.40
2023-03-21T22:24:56.356Z,48.00
2023-03-21T22:27:23.253Z,49.40
2023-03-21T22:29:50.069Z,53.10
2023-03-21T22:32:17.126Z,50.80
2023-03-21T22:34:43.834Z,51.80
2023-03-21T22:37:11.186Z,55.10
2023-03-21T22:39:38.094Z,63.20
2023-03-21T22:42:05.070Z,54.40
2023-03-21T22:44:35.838Z,61.80
2023-03-21T22:47:04.878Z,59.60
2023-03-21T22:49:34.871Z,65.20
2023-03-21T22:52:03.482Z,67.60
2023-03-21T22:54:30.861Z,69.60
2023-03-21T22:56:58.150Z,59.90
2023-03-21T22:59:25.785Z,60.30
2023-03-21T23:01:53.052Z,55.00
2023-03-21T23:04:21.763Z,55.70
2023-03-21T23:06:48.960Z,51.60
2023-03-21T23:09:17.564Z,49.10
2023-03-21T23:11:49.736Z,51.20
2023-03-21T23:14:19.471Z,60.30
2023-03-21T23:16:47.032Z,73.80
2023-03-21T23:19:14.195Z,83.10
2023-03-21T23:21:41.467Z,73.10
2023-03-21T23:24:08.682Z,61.80
2023-03-21T23:26:35.795Z,58.10
2023-03-21T23:29:03.967Z,51.50
2023-03-21T23:31:48.744Z,62.90
2023-03-21T23:34:16.156Z,65.20
2023-03-21T23:36:43.035Z,69.30
2023-03-21T23:39:10.226Z,64.10
2023-03-21T23:41:37.121Z,68.60
2023-03-21T23:44:04.155Z,67.20
2023-03-21T23:46:31.043Z,72.10
2023-03-21T23:48:57.983Z,62.80
2023-03-21T23:51:24.990Z,59.00
2023-03-21T23:53:53.437Z,69.00
2023-03-21T23:56:23.856Z,61.40
2023-03-21T23:58:51.387Z,67.90
